sensor_id;sensor_type;location;lat;lon;timestamp;temperature;humidity
13148;DHT22;6639;50.956;4.242;2024-03-22T00:02:23;18.20;99.90
13148;DHT22;6639;50.956;4.242;2024-03-22T00:04:48;18.60;99.90
13148;DHT22;6639;50.956;4.242;2024-03-22T00:07:15;18.70;99.90
13148;DHT22;6639;50.956;4.242;2024-03-22T00:09:41;18.30;99.90
13148;DHT22;6639;50.956;4.242;2024-03-22T00:12:08;18.20;99.90
13148;DHT22;6639;50.956;4.242;2024-03-22T00:14:35;18.20;99.90
13148;DHT22;6639;50.956;4.242;2024-03-22T00:17:02;18.30;99.90
13148;DHT22;6639;50.956;4.242;2024-03-22T00:19:28;18.50;99.90
13148;DHT22;6639;50.956;4.242;2024-03-22T00:21:55;18.20;99.90
13148;DHT22;6639;50.956;4.242;2024-03-22T00:24:20;18.40;99.90
13148;DHT22;6639;50.956;4.242;2024-03-22T00:26:47;18.50;99.90
13148;DHT22;6639;50.956;4.242;2024-03-22T00:29:13;18.20;99.90
13148;DHT22;6639;50.956;4.242;2024-03-22T00:31:41;18.20;99.90
13148;DHT22;6639;50.956;4.242;2024-03-22T00:34:07;18.30;99.90
13148;DHT22;6639;50.956;4.242;2024-03-22T00:36:34;18.40;99.90
13148;DHT22;6639;50.956;4.242;2024-03-22T00:39:00;18.40;99.90
13148;DHT22;6639;50.956;4.242;2024-03-22T00:41:27;18.50;99.90
13148;DHT22;6639;50.956;4.242;2024-03-22T00:43:53;18.60;99.90
13148;DHT22;6639;50.956;4.242;2024-03-22T00:46:19;18.70;99.90
13148;DHT22;6639;50.956;4.242;2024-03-22T00:48:47;18.70;99.90
13148;DHT22;6639;50.956;4.242;2024-03-22T00:51:14;18.60;99.90
13148;DHT22;6639;50.956;4.242;2024-03-22T00:53:39;18.50;99.90
13148;DHT22;6639;50.956;4.242;2024-03-22T00:56:06;18.20;99.90
13148;DHT22;6639;50.956;4.242;2024-03-22T00:58:32;18.20;99.90
13148;DHT22;6639;50.956;4.242;2024-03-22T01:00:59;18.20;99.90
13148;DHT22;6639;50.956;4.242;2024-03-22T01:03:25;18.30;99.90
13148;DHT22;6639;50.956;4.242;2024-03-22T01:05:53;18.40;99.90
13148;DHT22;6639;50.956;4.242;2024-03-22T01:08:19;18.30;99.90
13148;DHT22;6639;50.956;4.242;2024-03-22T01:10:46;18.20;99.90
13148;DHT22;6639;50.956;4.242;2024-03-22T01:13:12;18.20;99.90
13148;DHT22;6639;50.956;4.242;2024-03-22T01:15:39;18.10;99.90
13148;DHT22;6639;50.956;4.242;2024-03-22T01:18:04;18.10;99.90
13148;DHT22;6639;50.956;4.242;2024-03-22T01:20:31;17.70;99.90
13148;DHT22;6639;50.956;4.242;2024-03-22T01:22:59;17.70;99.90
13148;DHT22;6639;50.956;4.242;2024-03-22T01:25:27;17.60;99.90
13148;DHT22;6639;50.956;4.242;2024-03-22T01:27:53;17.80;99.90
13148;DHT22;6639;50.956;4.242;2024-03-22T01:30:20;18.20;99.90
13148;DHT22;6639;50.956;4.242;2024-03-22T01:32:46;18.20;99.90
13148;DHT22;6639;50.956;4.242;2024-03-22T01:35:14;18.00;99.90
13148;DHT22;6639;50.956;4.242;2024-03-22T01:37:40;18.10;99.90
13148;DHT22;6639;50.956;4.242;2024-03-22T01:40:09;18.20;99.90
13148;DHT22;6639;50.956;4.242;2024-03-22T01:42:35;18.40;99.90
13148;DHT22;6639;50.956;4.242;2024-03-22T01:45:02;18.30;99.90
13148;DHT22;6639;50.956;4.242;2024-03-22T01:47:29;18.10;99.90
13148;DHT22;6639;50.956;4.242;2024-03-22T01:49:56;18.10;99.90
13148;DHT22;6639;50.956;4.242;2024-03-22T01:52:22;17.80;99.90
13148;DHT22;6639;50.956;4.242;2024-03-22T01:54:49;17.60;99.90
13148;DHT22;6639;50.956;4.242;2024-03-22T01:57:16;17.60;99.90
13148;DHT22;6639;50.956;4.242;2024-03-22T01:59:43;17.60;99.90
13148;DHT22;6639;50.956;4.242;2024-03-22T02:02:11;17.40;99.90
13148;DHT22;6639;50.956;4.242;2024-03-22T02:04:38;17.50;99.90
13148;DHT22;6639;50.956;4.242;2024-03-22T02:07:04;17.60;99.90
13148;DHT22;6639;50.956;4.242;2024-03-22T02:09:31;17.70;99.90
13148;DHT22;6639;50.956;4.242;2024-03-22T02:11:57;17.60;99.90
13148;DHT22;6639;50.956;4.242;2024-03-22T02:14:25;17.60;99.90
13148;DHT22;6639;50.956;4.242;2024-03-22T02:16:51;17.60;99.90
13148;DHT22;6639;50.956;4.242;2024-03-22T02:19:18;17.70;99.90
13148;DHT22;6639;50.956;4.242;2024-03-22T02:21:44;17.80;99.90
13148;DHT22;6639;50.956;4.242;2024-03-22T02:24:12;17.70;99.90
13148;DHT22;6639;50.956;4.242;2024-03-22T02:26:39;17.60;99.90
13148;DHT22;6639;50.956;4.242;2024-03-22T02:29:05;17.50;99.90
13148;DHT22;6639;50.956;4.242;2024-03-22T02:31:31;17.50;99.90
13148;DHT22;6639;50.956;4.242;2024-03-22T02:33:58;17.50;99.90
13148;DHT22;6639;50.956;4.242;2024-03-22T02:36:27;17.50;99.90
13148;DHT22;6639;50.956;4.242;2024-03-22T02:38:53;17.40;99.90
13148;DHT22;6639;50.956;4.242;2024-03-22T02:41:21;17.20;99.90
13148;DHT22;6639;50.956;4.242;2024-03-22T02:43:48;17.00;99.90
13148;DHT22;6639;50.956;4.242;2024-03-22T02:46:14;17.10;99.90
13148;DHT22;6639;50.956;4.242;2024-03-22T02:48:41;17.10;99.90
13148;DHT22;6639;50.956;4.242;2024-03-22T02:51:07;17.40;99.90
13148;DHT22;6639;50.956;4.242;2024-03-22T02:53:33;17.70;99.90
13148;DHT22;6639;50.956;4.242;2024-03-22T02:56:00;17.60;99.90
13148;DHT22;6639;50.956;4.242;2024-03-22T02:58:28;17.50;99.90
13148;DHT22;6639;50.956;4.242;2024-03-22T03:00:54;17.50;99.90
13148;DHT22;6639;50.956;4.242;2024-03-22T03:03:21;17.30;99.90
13148;DHT22;6639;50.956;4.242;2024-03-22T03:05:47;17.20;99.90
13148;DHT22;6639;50.956;4.242;2024-03-22T03:08:14;17.20;99.90
13148;DHT22;6639;50.956;4.242;2024-03-22T03:10:39;17.50;99.90
13148;DHT22;6639;50.956;4.242;2024-03-22T03:13:06;17.70;99.90
13148;DHT22;6639;50.956;4.242;2024-03-22T03:15:34;17.70;99.90
13148;DHT22;6639;50.956;4.242;2024-03-22T03:18:00;17.60;99.90
13148;DHT22;6639;50.956;4.242;2024-03-22T03:20:26;17.40;99.90
13148;DHT22;6639;50.956;4.242;2024-03-22T03:22:53;17.40;99.90
13148;DHT22;6639;50.956;4.242;2024-03-22T03:25:19;17.40;99.90
13148;DHT22;6639;50.956;4.242;2024-03-22T03:27:46;17.20;99.90
13148;DHT22;6639;50.956;4.242;2024-03-22T03:30:12;17.00;99.90
13148;DHT22;6639;50.956;4.242;2024-03-22T03:32:40;16.90;99.90
13148;DHT22;6639;50.956;4.242;2024-03-22T03:35:06;17.20;99.90
13148;DHT22;6639;50.956;4.242;2024-03-22T03:37:33;16.90;99.90
13148;DHT22;6639;50.956;4.242;2024-03-22T03:39:59;16.70;99.90
13148;DHT22;6639;50.956;4.242;2024-03-22T03:42:26;16.80;99.90
13148;DHT22;6639;50.956;4.242;2024-03-22T03:44:52;16.80;99.90
13148;DHT22;6639;50.956;4.242;2024-03-22T03:47:18;16.90;99.90
13148;DHT22;6639;50.956;4.242;2024-03-22T03:49:46;16.90;99.90
13148;DHT22;6639;50.956;4.242;2024-03-22T03:52:13;16.80;99.90
13148;DHT22;6639;50.956;4.242;2024-03-22T03:54:39;16.80;99.90
13148;DHT22;6639;50.956;4.242;2024-03-22T03:57:06;16.60;99.90
13148;DHT22;6639;50.956;4.242;2024-03-22T03:59:33;16.50;99.90
13148;DHT22;6639;50.956;4.242;2024-03-22T04:01:59;16.60;99.90
13148;DHT22;6639;50.956;4.242;2024-03-22T04:04:25;16.60;99.90
13148;DHT22;6639;50.956;4.242;2024-03-22T04:06:54;16.40;99.90
13148;DHT22;6639;50.956;4.242;2024-03-22T04:09:19;16.40;99.90
13148;DHT22;6639;50.956;4.242;2024-03-22T04:11:46;16.10;99.90
13148;DHT22;6639;50.956;4.242;2024-03-22T04:14:13;15.70;99.90
13148;DHT22;6639;50.956;4.242;2024-03-22T04:16:40;15.80;99.90
13148;DHT22;6639;50.956;4.242;2024-03-22T04:19:06;16.00;99.90
13148;DHT22;6639;50.956;4.242;2024-03-22T04:21:33;16.30;99.90
13148;DHT22;6639;50.956;4.242;2024-03-22T04:24:00;16.20;99.90
13148;DHT22;6639;50.956;4.242;2024-03-22T04:26:27;16.00;99.90
13148;DHT22;6639;50.956;4.242;2024-03-22T04:28:53;16.10;99.90
13148;DHT22;6639;50.956;4.242;2024-03-22T04:31:20;16.00;99.90
13148;DHT22;6639;50.956;4.242;2024-03-22T04:33:46;16.00;99.90
13148;DHT22;6639;50.956;4.242;2024-03-22T04:36:13;15.80;99.90
13148;DHT22;6639;50.956;4.242;2024-03-22T04:38:38;15.90;99.90
13148;DHT22;6639;50.956;4.242;2024-03-22T04:41:08;15.80;99.90
13148;DHT22;6639;50.956;4.242;2024-03-22T04:43:35;15.60;99.90
13148;DHT22;6639;50.956;4.242;2024-03-22T04:46:02;15.80;99.90
13148;DHT22;6639;50.956;4.242;2024-03-22T04:48:29;16.10;99.90
13148;DHT22;6639;50.956;4.242;2024-03-22T04:50:56;16.00;99.90
13148;DHT22;6639;50.956;4.242;2024-03-22T04:53:23;15.80;99.90
13148;DHT22;6639;50.956;4.242;2024-03-22T04:55:50;15.60;99.90
13148;DHT22;6639;50.956;4.242;2024-03-22T04:58:19;15.50;99.90
13148;DHT22;6639;50.956;4.242;2024-03-22T05:00:47;15.50;99.90
13148;DHT22;6639;50.956;4.242;2024-03-22T05:03:14;15.70;99.90
13148;DHT22;6639;50.956;4.242;2024-03-22T05:05:41;15.70;99.90
13148;DHT22;6639;50.956;4.242;2024-03-22T05:08:08;15.90;99.90
13148;DHT22;6639;50.956;4.242;2024-03-22T05:10:34;16.10;99.90
13148;DHT22;6639;50.956;4.242;2024-03-22T05:13:01;16.20;99.90
13148;DHT22;6639;50.956;4.242;2024-03-22T05:15:28;16.10;99.90
13148;DHT22;6639;50.956;4.242;2024-03-22T05:17:56;15.90;99.90
13148;DHT22;6639;50.956;4.242;2024-03-22T05:20:22;15.80;99.90
13148;DHT22;6639;50.956;4.242;2024-03-22T05:22:49;16.20;99.90
13148;DHT22;6639;50.956;4.242;2024-03-22T05:25:15;16.50;99.90
13148;DHT22;6639;50.956;4.242;2024-03-22T05:27:42;16.40;99.90
13148;DHT22;6639;50.956;4.242;2024-03-22T05:30:09;16.20;99.90
13148;DHT22;6639;50.956;4.242;2024-03-22T05:32:37;16.00;99.90
13148;DHT22;6639;50.956;4.242;2024-03-22T05:35:04;15.70;99.90
13148;DHT22;6639;50.956;4.242;2024-03-22T05:37:31;15.50;99.90
13148;DHT22;6639;50.956;4.242;2024-03-22T05:39:57;15.30;99.90
13148;DHT22;6639;50.956;4.242;2024-03-22T05:42:24;15.20;99.90
13148;DHT22;6639;50.956;4.242;2024-03-22T05:44:50;15.30;99.90
13148;DHT22;6639;50.956;4.242;2024-03-22T05:47:18;15.60;99.90
13148;DHT22;6639;50.956;4.242;2024-03-22T05:49:46;15.80;99.90
13148;DHT22;6639;50.956;4.242;2024-03-22T05:52:13;15.80;99.90
13148;DHT22;6639;50.956;4.242;2024-03-22T05:54:39;15.90;99.90
13148;DHT22;6639;50.956;4.242;2024-03-22T05:57:06;15.70;99.90
13148;DHT22;6639;50.956;4.242;2024-03-22T05:59:32;15.80;99.90
13148;DHT22;6639;50.956;4.242;2024-03-22T06:02:00;15.50;99.90
13148;DHT22;6639;50.956;4.242;2024-03-22T06:04:26;15.50;99.90
13148;DHT22;6639;50.956;4.242;2024-03-22T06:06:54;15.60;99.90
13148;DHT22;6639;50.956;4.242;2024-03-22T06:09:20;15.80;99.90
13148;DHT22;6639;50.956;4.242;2024-03-22T06:12:03;15.80;99.90
13148;DHT22;6639;50.956;4.242;2024-03-22T06:14:29;15.80;99.90
13148;DHT22;6639;50.956;4.242;2024-03-22T06:16:56;15.60;99.90
13148;DHT22;6639;50.956;4.242;2024-03-22T06:19:22;15.30;99.90
13148;DHT22;6639;50.956;4.242;2024-03-22T06:21:50;15.30;99.90
13148;DHT22;6639;50.956;4.242;2024-03-22T06:24:17;15.10;99.90
13148;DHT22;6639;50.956;4.242;2024-03-22T06:26:44;15.00;99.90
13148;DHT22;6639;50.956;4.242;2024-03-22T06:29:10;14.80;99.90
13148;DHT22;6639;50.956;4.242;2024-03-22T06:31:38;14.90;99.90
13148;DHT22;6639;50.956;4.242;2024-03-22T06:34:04;15.10;99.90
13148;DHT22;6639;50.956;4.242;2024-03-22T06:36:31;15.40;99.90
13148;DHT22;6639;50.956;4.242;2024-03-22T06:38:58;15.50;99.90
13148;DHT22;6639;50.956;4.242;2024-03-22T06:41:27;15.60;99.90
13148;DHT22;6639;50.956;4.242;2024-03-22T06:43:53;15.50;99.90
13148;DHT22;6639;50.956;4.242;2024-03-22T06:46:20;15.70;99.90
13148;DHT22;6639;50.956;4.242;2024-03-22T06:48:46;15.80;99.90
13148;DHT22;6639;50.956;4.242;2024-03-22T06:51:13;15.70;99.90
13148;DHT22;6639;50.956;4.242;2024-03-22T06:53:39;16.00;99.90
13148;DHT22;6639;50.956;4.242;2024-03-22T06:56:06;15.80;99.90
13148;DHT22;6639;50.956;4.242;2024-03-22T06:58:35;15.60;99.90
13148;DHT22;6639;50.956;4.242;2024-03-22T07:01:02;15.30;99.90
13148;DHT22;6639;50.956;4.242;2024-03-22T07:03:28;15.30;99.90
13148;DHT22;6639;50.956;4.242;2024-03-22T07:05:55;15.40;99.90
13148;DHT22;6639;50.956;4.242;2024-03-22T07:08:21;15.50;99.90
13148;DHT22;6639;50.956;4.242;2024-03-22T07:10:48;15.60;99.90
13148;DHT22;6639;50.956;4.242;2024-03-22T07:13:14;15.50;99.90
13148;DHT22;6639;50.956;4.242;2024-03-22T07:15:44;15.80;99.90
13148;DHT22;6639;50.956;4.242;2024-03-22T07:18:10;16.20;99.90
13148;DHT22;6639;50.956;4.242;2024-03-22T07:20:37;15.90;99.90
13148;DHT22;6639;50.956;4.242;2024-03-22T07:23:03;16.00;99.90
13148;DHT22;6639;50.956;4.242;2024-03-22T07:25:30;16.00;99.90
13148;DHT22;6639;50.956;4.242;2024-03-22T07:27:57;15.80;99.90
13148;DHT22;6639;50.956;4.242;2024-03-22T07:30:24;15.60;99.90
13148;DHT22;6639;50.956;4.242;2024-03-22T07:32:51;15.60;99.90
13148;DHT22;6639;50.956;4.242;2024-03-22T07:35:18;15.80;99.90
13148;DHT22;6639;50.956;4.242;2024-03-22T07:37:45;15.80;99.90
13148;DHT22;6639;50.956;4.242;2024-03-22T07:40:11;15.60;99.90
13148;DHT22;6639;50.956;4.242;2024-03-22T07:42:38;15.70;99.90
13148;DHT22;6639;50.956;4.242;2024-03-22T07:45:04;15.60;99.90
13148;DHT22;6639;50.956;4.242;2024-03-22T07:47:31;15.60;99.90
13148;DHT22;6639;50.956;4.242;2024-03-22T07:49:59;16.00;99.90
13148;DHT22;6639;50.956;4.242;2024-03-22T07:52:25;16.00;99.90
13148;DHT22;6639;50.956;4.242;2024-03-22T07:54:51;16.20;99.90
13148;DHT22;6639;50.956;4.242;2024-03-22T07:57:18;15.90;99.90
13148;DHT22;6639;50.956;4.242;2024-03-22T07:59:45;15.70;99.90
13148;DHT22;6639;50.956;4.242;2024-03-22T08:02:13;15.60;99.90
13148;DHT22;6639;50.956;4.242;2024-03-22T08:04:38;15.30;99.90
13148;DHT22;6639;50.956;4.242;2024-03-22T08:07:07;15.50;99.90
13148;DHT22;6639;50.956;4.242;2024-03-22T08:09:33;15.80;99.90
13148;DHT22;6639;50.956;4.242;2024-03-22T08:12:00;15.60;99.90
13148;DHT22;6639;50.956;4.242;2024-03-22T08:14:26;15.50;99.90
13148;DHT22;6639;50.956;4.242;2024-03-22T08:16:52;15.70;99.90
13148;DHT22;6639;50.956;4.242;2024-03-22T08:19:18;15.70;99.90
13148;DHT22;6639;50.956;4.242;2024-03-22T08:21:46;15.50;99.90
13148;DHT22;6639;50.956;4.242;2024-03-22T08:24:13;15.60;99.90
13148;DHT22;6639;50.956;4.242;2024-03-22T08:26:40;15.60;99.90
13148;DHT22;6639;50.956;4.242;2024-03-22T08:29:10;15.90;99.90
13148;DHT22;6639;50.956;4.242;2024-03-22T08:31:40;15.90;99.90
13148;DHT22;6639;50.956;4.242;2024-03-22T08:34:08;15.80;99.90
13148;DHT22;6639;50.956;4.242;2024-03-22T08:36:35;15.70;99.90
13148;DHT22;6639;50.956;4.242;2024-03-22T08:39:01;16.00;99.90
13148;DHT22;6639;50.956;4.242;2024-03-22T08:41:29;16.20;99.90
13148;DHT22;6639;50.956;4.242;2024-03-22T08:43:55;16.10;99.90
13148;DHT22;6639;50.956;4.242;2024-03-22T08:46:23;16.20;99.90
13148;DHT22;6639;50.956;4.242;2024-03-22T08:48:50;16.30;99.90
13148;DHT22;6639;50.956;4.242;2024-03-22T08:51:17;16.40;99.90
13148;DHT22;6639;50.956;4.242;2024-03-22T08:53:43;16.30;99.90
13148;DHT22;6639;50.956;4.242;2024-03-22T08:56:10;16.30;99.90
13148;DHT22;6639;50.956;4.242;2024-03-22T08:58:38;16.40;99.90
13148;DHT22;6639;50.956;4.242;2024-03-22T09:01:06;16.10;99.90
13148;DHT22;6639;50.956;4.242;2024-03-22T09:03:31;16.00;99.90
13148;DHT22;6639;50.956;4.242;2024-03-22T09:05:58;16.10;99.90
13148;DHT22;6639;50.956;4.242;2024-03-22T09:08:24;16.20;99.90
13148;DHT22;6639;50.956;4.242;2024-03-22T09:10:51;16.20;99.90
13148;DHT22;6639;50.956;4.242;2024-03-22T09:13:17;15.90;99.90
13148;DHT22;6639;50.956;4.242;2024-03-22T09:15:46;16.30;99.90
13148;DHT22;6639;50.956;4.242;2024-03-22T09:18:11;16.50;99.90
13148;DHT22;6639;50.956;4.242;2024-03-22T09:20:38;16.20;99.90
13148;DHT22;6639;50.956;4.242;2024-03-22T09:23:05;16.30;99.90
13148;DHT22;6639;50.956;4.242;2024-03-22T09:25:31;16.50;99.90
13148;DHT22;6639;50.956;4.242;2024-03-22T09:27:59;16.50;99.90
13148;DHT22;6639;50.956;4.242;2024-03-22T09:30:25;16.70;99.90
13148;DHT22;6639;50.956;4.242;2024-03-22T09:32:53;16.90;99.90
13148;DHT22;6639;50.956;4.242;2024-03-22T09:35:19;16.60;99.90
13148;DHT22;6639;50.956;4.242;2024-03-22T09:37:46;16.50;99.90
13148;DHT22;6639;50.956;4.242;2024-03-22T09:40:12;16.30;99.90
13148;DHT22;6639;50.956;4.242;2024-03-22T09:42:41;16.10;99.90
13148;DHT22;6639;50.956;4.242;2024-03-22T09:45:08;16.20;99.90
13148;DHT22;6639;50.956;4.242;2024-03-22T09:47:36;16.50;99.90
13148;DHT22;6639;50.956;4.242;2024-03-22T09:50:07;16.30;99.90
13148;DHT22;6639;50.956;4.242;2024-03-22T09:52:35;16.30;99.90
13148;DHT22;6639;50.956;4.242;2024-03-22T09:55:04;16.10;99.90
13148;DHT22;6639;50.956;4.242;2024-03-22T09:57:31;16.30;99.90
13148;DHT22;6639;50.956;4.242;2024-03-22T09:59:57;16.50;99.90
13148;DHT22;6639;50.956;4.242;2024-03-22T10:02:24;16.50;99.90
13148;DHT22;6639;50.956;4.242;2024-03-22T10:04:52;16.70;99.90
13148;DHT22;6639;50.956;4.242;2024-03-22T10:07:20;16.80;99.90
13148;DHT22;6639;50.956;4.242;2024-03-22T10:09:46;16.70;99.90
13148;DHT22;6639;50.956;4.242;2024-03-22T10:12:13;16.50;99.90
13148;DHT22;6639;50.956;4.242;2024-03-22T10:14:43;16.30;99.90
13148;DHT22;6639;50.956;4.242;2024-03-22T10:17:10;16.20;99.90
13148;DHT22;6639;50.956;4.242;2024-03-22T10:19:36;16.30;99.90
13148;DHT22;6639;50.956;4.242;2024-03-22T10:22:03;16.40;99.90
13148;DHT22;6639;50.956;4.242;2024-03-22T10:24:31;16.70;99.90
13148;DHT22;6639;50.956;4.242;2024-03-22T10:26:58;17.00;99.90
13148;DHT22;6639;50.956;4.242;2024-03-22T10:29:24;16.90;99.90
13148;DHT22;6639;50.956;4.242;2024-03-22T10:31:52;16.80;99.90
13148;DHT22;6639;50.956;4.242;2024-03-22T10:34:18;16.90;99.90
13148;DHT22;6639;50.956;4.242;2024-03-22T10:36:47;17.00;99.90
13148;DHT22;6639;50.956;4.242;2024-03-22T10:39:16;17.00;99.90
13148;DHT22;6639;50.956;4.242;2024-03-22T10:41:45;17.20;99.90
13148;DHT22;6639;50.956;4.242;2024-03-22T10:44:11;17.00;99.90
13148;DHT22;6639;50.956;4.242;2024-03-22T10:46:38;16.90;99.90
13148;DHT22;6639;50.956;4.242;2024-03-22T10:49:09;16.80;99.90
13148;DHT22;6639;50.956;4.242;2024-03-22T10:51:37;17.00;99.90
13148;DHT22;6639;50.956;4.242;2024-03-22T10:54:04;17.30;99.90
13148;DHT22;6639;50.956;4.242;2024-03-22T10:56:32;17.50;99.90
13148;DHT22;6639;50.956;4.242;2024-03-22T10:59:04;17.70;99.90
13148;DHT22;6639;50.956;4.242;2024-03-22T11:01:31;17.90;99.90
13148;DHT22;6639;50.956;4.242;2024-03-22T11:04:05;17.70;99.90
13148;DHT22;6639;50.956;4.242;2024-03-22T11:06:36;17.40;99.90
13148;DHT22;6639;50.956;4.242;2024-03-22T11:09:03;17.30;99.90
13148;DHT22;6639;50.956;4.242;2024-03-22T11:11:30;17.40;99.90
13148;DHT22;6639;50.956;4.242;2024-03-22T11:13:58;17.40;99.90
13148;DHT22;6639;50.956;4.242;2024-03-22T11:16:27;17.50;99.90
13148;DHT22;6639;50.956;4.242;2024-03-22T11:18:52;17.30;99.90
13148;DHT22;6639;50.956;4.242;2024-03-22T11:21:19;16.90;99.90
13148;DHT22;6639;50.956;4.242;2024-03-22T11:23:46;17.10;99.90
13148;DHT22;6639;50.956;4.242;2024-03-22T11:26:13;17.20;99.90
13148;DHT22;6639;50.956;4.242;2024-03-22T11:28:39;17.30;99.90
13148;DHT22;6639;50.956;4.242;2024-03-22T11:31:06;17.10;99.90
13148;DHT22;6639;50.956;4.242;2024-03-22T11:33:36;17.20;99.90
13148;DHT22;6639;50.956;4.242;2024-03-22T11:36:03;16.90;99.90
13148;DHT22;6639;50.956;4.242;2024-03-22T11:38:31;16.80;99.90
13148;DHT22;6639;50.956;4.242;2024-03-22T11:40:59;17.10;99.90
13148;DHT22;6639;50.956;4.242;2024-03-22T11:43:26;17.40;99.90
13148;DHT22;6639;50.956;4.242;2024-03-22T11:45:54;17.40;99.90
13148;DHT22;6639;50.956;4.242;2024-03-22T11:48:20;17.60;99.90
13148;DHT22;6639;50.956;4.242;2024-03-22T11:50:49;17.90;99.90
13148;DHT22;6639;50.956;4.242;2024-03-22T11:53:16;18.20;99.90
13148;DHT22;6639;50.956;4.242;2024-03-22T11:55:43;18.10;99.90
13148;DHT22;6639;50.956;4.242;2024-03-22T11:58:09;18.00;99.90
13148;DHT22;6639;50.956;4.242;2024-03-22T12:00:36;18.10;99.90
13148;DHT22;6639;50.956;4.242;2024-03-22T12:03:04;18.10;99.90
13148;DHT22;6639;50.956;4.242;2024-03-22T12:05:32;18.20;99.90
13148;DHT22;6639;50.956;4.242;2024-03-22T12:07:59;18.30;99.90
13148;DHT22;6639;50.956;4.242;2024-03-22T12:10:26;18.50;99.90
13148;DHT22;6639;50.956;4.242;2024-03-22T12:12:52;18.70;99.90
13148;DHT22;6639;50.956;4.242;2024-03-22T12:15:20;18.30;99.90
13148;DHT22;6639;50.956;4.242;2024-03-22T12:17:46;18.00;99.90
13148;DHT22;6639;50.956;4.242;2024-03-22T12:20:13;17.80;99.90
13148;DHT22;6639;50.956;4.242;2024-03-22T12:22:41;17.70;99.90
13148;DHT22;6639;50.956;4.242;2024-03-22T12:25:09;17.70;99.90
13148;DHT22;6639;50.956;4.242;2024-03-22T12:27:36;17.70;99.90
13148;DHT22;6639;50.956;4.242;2024-03-22T12:30:04;17.50;99.90
13148;DHT22;6639;50.956;4.242;2024-03-22T12:32:31;17.50;99.90
13148;DHT22;6639;50.956;4.242;2024-03-22T12:34:58;17.70;99.90
13148;DHT22;6639;50.956;4.242;2024-03-22T12:37:24;17.40;99.90
13148;DHT22;6639;50.956;4.242;2024-03-22T12:39:51;17.40;99.90
13148;DHT22;6639;50.956;4.242;2024-03-22T12:42:19;17.50;99.90
13148;DHT22;6639;50.956;4.242;2024-03-22T12:44:46;17.70;99.90
13148;DHT22;6639;50.956;4.242;2024-03-22T12:47:12;17.80;99.90
13148;DHT22;6639;50.956;4.242;2024-03-22T12:49:45;17.80;99.90
13148;DHT22;6639;50.956;4.242;2024-03-22T12:52:11;17.70;99.90
13148;DHT22;6639;50.956;4.242;2024-03-22T12:54:38;17.50;99.90
13148;DHT22;6639;50.956;4.242;2024-03-22T12:57:04;17.60;99.90
13148;DHT22;6639;50.956;4.242;2024-03-22T12:59:32;17.40;99.90
13148;DHT22;6639;50.956;4.242;2024-03-22T13:01:59;17.60;99.90
13148;DHT22;6639;50.956;4.242;2024-03-22T13:04:27;17.40;99.90
13148;DHT22;6639;50.956;4.242;2024-03-22T13:06:53;17.50;99.90
13148;DHT22;6639;50.956;4.242;2024-03-22T13:09:19;17.30;99.90
13148;DHT22;6639;50.956;4.242;2024-03-22T13:11:47;17.30;99.90
13148;DHT22;6639;50.956;4.242;2024-03-22T13:14:14;17.40;99.90
13148;DHT22;6639;50.956;4.242;2024-03-22T13:16:41;17.30;99.90
13148;DHT22;6639;50.956;4.242;2024-03-22T13:19:08;17.40;99.90
13148;DHT22;6639;50.956;4.242;2024-03-22T13:21:37;17.10;99.90
13148;DHT22;6639;50.956;4.242;2024-03-22T13:24:04;16.80;99.90
13148;DHT22;6639;50.956;4.242;2024-03-22T13:26:30;16.90;99.90
13148;DHT22;6639;50.956;4.242;2024-03-22T13:28:57;16.80;99.90
13148;DHT22;6639;50.956;4.242;2024-03-22T13:31:23;17.20;99.90
13148;DHT22;6639;50.956;4.242;2024-03-22T13:33:51;17.20;99.90
13148;DHT22;6639;50.956;4.242;2024-03-22T13:36:18;17.40;99.90
13148;DHT22;6639;50.956;4.242;2024-03-22T13:38:45;17.30;99.90
13148;DHT22;6639;50.956;4.242;2024-03-22T13:41:10;17.20;99.90
13148;DHT22;6639;50.956;4.242;2024-03-22T13:43:38;17.50;99.90
13148;DHT22;6639;50.956;4.242;2024-03-22T13:46:05;17.80;99.90
13148;DHT22;6639;50.956;4.242;2024-03-22T13:48:32;18.10;99.90
13148;DHT22;6639;50.956;4.242;2024-03-22T13:50:59;18.30;99.90
13148;DHT22;6639;50.956;4.242;2024-03-22T13:53:27;18.30;99.90
13148;DHT22;6639;50.956;4.242;2024-03-22T13:55:52;18.30;99.90
13148;DHT22;6639;50.956;4.242;2024-03-22T13:58:20;18.10;99.90
13148;DHT22;6639;50.956;4.242;2024-03-22T14:00:46;18.30;99.90
13148;DHT22;6639;50.956;4.242;2024-03-22T14:03:13;18.50;99.90
13148;DHT22;6639;50.956;4.242;2024-03-22T14:05:39;18.10;99.90
13148;DHT22;6639;50.956;4.242;2024-03-22T14:08:07;18.00;99.90
13148;DHT22;6639;50.956;4.242;2024-03-22T14:10:33;18.10;99.90
13148;DHT22;6639;50.956;4.242;2024-03-22T14:13:00;18.20;99.90
13148;DHT22;6639;50.956;4.242;2024-03-22T14:15:27;18.20;99.90
13148;DHT22;6639;50.956;4.242;2024-03-22T14:17:57;18.10;99.90
13148;DHT22;6639;50.956;4.242;2024-03-22T14:20:23;18.00;99.90
13148;DHT22;6639;50.956;4.242;2024-03-22T14:22:50;17.70;99.90
13148;DHT22;6639;50.956;4.242;2024-03-22T14:25:18;17.70;99.90
13148;DHT22;6639;50.956;4.242;2024-03-22T14:27:44;18.00;99.90
13148;DHT22;6639;50.956;4.242;2024-03-22T14:30:12;17.90;99.90
13148;DHT22;6639;50.956;4.242;2024-03-22T14:32:40;17.80;99.90
13148;DHT22;6639;50.956;4.242;2024-03-22T14:35:07;17.40;99.90
13148;DHT22;6639;50.956;4.242;2024-03-22T14:37:34;17.50;99.90
13148;DHT22;6639;50.956;4.242;2024-03-22T14:40:00;17.40;99.90
13148;DHT22;6639;50.956;4.242;2024-03-22T14:42:31;17.70;99.90
13148;DHT22;6639;50.956;4.242;2024-03-22T14:44:57;18.10;99.90
13148;DHT22;6639;50.956;4.242;2024-03-22T14:47:24;18.50;99.90
13148;DHT22;6639;50.956;4.242;2024-03-22T14:49:50;18.70;99.90
13148;DHT22;6639;50.956;4.242;2024-03-22T14:52:17;18.50;99.90
13148;DHT22;6639;50.956;4.242;2024-03-22T14:54:43;18.20;99.90
13148;DHT22;6639;50.956;4.242;2024-03-22T14:57:11;18.10;99.90
13148;DHT22;6639;50.956;4.242;2024-03-22T14:59:38;17.80;99.90
13148;DHT22;6639;50.956;4.242;2024-03-22T15:02:05;17.80;99.90
13148;DHT22;6639;50.956;4.242;2024-03-22T15:04:31;17.90;99.90
13148;DHT22;6639;50.956;4.242;2024-03-22T15:06:58;17.60;99.90
13148;DHT22;6639;50.956;4.242;2024-03-22T15:09:24;17.70;99.90
13148;DHT22;6639;50.956;4.242;2024-03-22T15:11:51;17.70;99.90
13148;DHT22;6639;50.956;4.242;2024-03-22T15:14:17;17.30;99.90
13148;DHT22;6639;50.956;4.242;2024-03-22T15:16:45;17.20;99.90
13148;DHT22;6639;50.956;4.242;2024-03-22T15:19:11;17.20;99.90
13148;DHT22;6639;50.956;4.242;2024-03-22T15:21:37;17.00;99.90
13148;DHT22;6639;50.956;4.242;2024-03-22T15:24:04;17.20;99.90
13148;DHT22;6639;50.956;4.242;2024-03-22T15:26:31;16.90;99.90
13148;DHT22;6639;50.956;4.242;2024-03-22T15:28:57;16.90;99.90
13148;DHT22;6639;50.956;4.242;2024-03-22T15:31:24;16.80;99.90
13148;DHT22;6639;50.956;4.242;2024-03-22T15:33:52;16.90;99.90
13148;DHT22;6639;50.956;4.242;2024-03-22T15:36:18;16.90;99.90
13148;DHT22;6639;50.956;4.242;2024-03-22T15:38:46;17.10;99.90
13148;DHT22;6639;50.956;4.242;2024-03-22T15:41:13;17.30;99.90
13148;DHT22;6639;50.956;4.242;2024-03-22T15:43:43;17.40;99.90